createdAt,value
2018-04-14T00:02:06.050Z,13.93
2018-04-14T00:04:33.650Z,10.53
2018-04-14T00:07:01.260Z,12.90
2018-04-14T00:09:28.893Z,14.87
2018-04-14T00:11:57.285Z,16.63
2018-04-14T00:14:24.849Z,9.67
2018-04-14T00:16:52.411Z,11.03
2018-04-14T00:19:20.035Z,11.67
2018-04-14T00:21:48.377Z,10.67
2018-04-14T00:24:15.956Z,14.23
2018-04-14T00:26:43.994Z,11.27
2018-04-14T00:29:11.669Z,14.93
2018-04-14T00:31:39.222Z,9.70
2018-04-14T00:34:07.748Z,14.40
2018-04-14T00:36:36.082Z,12.00
2018-04-14T00:39:03.824Z,11.23
2018-04-14T00:41:31.383Z,11.93
2018-04-14T00:43:59.033Z,12.90
2018-04-14T00:46:26.614Z,14.27
2018-04-14T00:48:54.236Z,10.90
2018-04-14T00:51:22.603Z,12.03
2018-04-14T00:53:50.996Z,16.00
2018-04-14T00:56:19.359Z,9.23
2018-04-14T00:58:47.671Z,12.47
2018-04-14T01:01:15.337Z,10.83
2018-04-14T01:03:42.914Z,13.50
2018-04-14T01:06:10.546Z,12.43
2018-04-14T01:08:38.220Z,13.30
2018-04-14T01:11:05.793Z,12.10
2018-04-14T01:13:33.611Z,15.30
2018-04-14T01:16:01.971Z,16.13
2018-04-14T01:18:29.530Z,15.83
2018-04-14T01:20:57.215Z,13.87
2018-04-14T01:23:24.905Z,12.13
2018-04-14T01:25:52.603Z,10.60
2018-04-14T01:28:20.192Z,14.07
2018-04-14T01:30:48.525Z,11.87
2018-04-14T01:33:16.262Z,17.80
2018-04-14T01:35:44.815Z,15.90
2018-04-14T01:38:13.920Z,12.20
2018-04-14T01:40:41.479Z,9.20
2018-04-14T01:43:10.093Z,12.20
2018-04-14T01:45:37.684Z,8.20
2018-04-14T01:48:05.385Z,8.93
2018-04-14T01:50:32.937Z,7.03
2018-04-14T01:53:01.269Z,10.97
2018-04-14T01:55:28.868Z,10.30
2018-04-14T01:57:57.305Z,7.57
2018-04-14T02:00:24.895Z,7.53
2018-04-14T02:02:53.227Z,7.50
2018-04-14T02:05:20.814Z,9.30
2018-04-14T02:07:48.365Z,8.60
2018-04-14T02:10:15.927Z,8.50
2018-04-14T02:12:43.525Z,9.03
2018-04-14T02:15:11.892Z,9.23
2018-04-14T02:17:40.246Z,8.70
2018-04-14T02:20:07.798Z,10.03
2018-04-14T02:22:35.375Z,6.67
2018-04-14T02:25:03.088Z,9.53
2018-04-14T02:27:31.541Z,11.20
2018-04-14T02:29:59.871Z,7.77
2018-04-14T02:32:27.467Z,7.20
2018-04-14T02:34:55.824Z,9.47
2018-04-14T02:37:23.419Z,13.93
2018-04-14T02:39:51.007Z,11.23
2018-04-14T02:42:18.570Z,12.50
2018-04-14T02:44:46.136Z,10.10
2018-04-14T02:47:13.919Z,11.47
2018-04-14T02:49:41.523Z,10.10
2018-04-14T02:52:09.360Z,12.13
2018-04-14T02:54:36.976Z,7.83
2018-04-14T02:57:04.580Z,11.83
2018-04-14T02:59:32.295Z,8.43
2018-04-14T03:01:59.894Z,6.83
2018-04-14T03:04:28.862Z,6.40
2018-04-14T03:06:56.443Z,9.33
2018-04-14T03:09:24.029Z,7.63
2018-04-14T03:11:52.510Z,8.33
2018-04-14T03:14:20.886Z,6.90
2018-04-14T03:16:49.254Z,6.67
2018-04-14T03:19:16.792Z,9.10
2018-04-14T03:21:44.379Z,6.63
2018-04-14T03:24:12.695Z,5.90
2018-04-14T03:26:40.292Z,5.20
2018-04-14T03:29:09.407Z,6.70
2018-04-14T03:31:37.876Z,6.53
2018-04-14T03:34:05.471Z,5.73
2018-04-14T03:36:33.058Z,7.23
2018-04-14T03:39:00.697Z,6.33
2018-04-14T03:41:28.242Z,6.10
2018-04-14T03:43:56.983Z,7.40
2018-04-14T03:46:24.583Z,6.73
2018-04-14T03:48:52.902Z,6.47
2018-04-14T03:51:20.759Z,6.57
2018-04-14T03:53:48.318Z,6.67
2018-04-14T03:56:16.338Z,10.27
2018-04-14T03:58:44.200Z,8.23
2018-04-14T04:01:11.760Z,5.20
2018-04-14T04:03:39.340Z,8.87
2018-04-14T04:06:07.699Z,5.43
2018-04-14T04:08:36.322Z,6.63
2018-04-14T04:11:03.926Z,5.90
2018-04-14T04:13:31.504Z,7.17
2018-04-14T04:15:59.834Z,6.80
2018-04-14T04:18:39.464Z,7.07
2018-04-14T04:21:19.015Z,6.97
2018-04-14T04:23:58.550Z,6.50
2018-04-14T04:26:26.105Z,8.93
2018-04-14T04:28:53.666Z,9.47
2018-04-14T04:31:21.377Z,6.87
2018-04-14T04:33:49.076Z,7.17
2018-04-14T04:36:16.703Z,9.40
2018-04-14T04:38:44.888Z,7.73
2018-04-14T04:41:13.238Z,9.37
2018-04-14T04:43:40.801Z,7.97
2018-04-14T04:46:08.525Z,9.83
2018-04-14T04:48:36.083Z,8.30
2018-04-14T04:51:03.637Z,8.97
2018-04-14T04:53:31.220Z,8.30
2018-04-14T04:55:58.864Z,10.10
2018-04-14T04:58:26.626Z,9.13
2018-04-14T05:00:54.211Z,8.87
2018-04-14T05:03:21.778Z,7.43
2018-04-14T05:05:49.332Z,5.17
2018-04-14T05:08:16.917Z,9.90
2018-04-14T05:10:44.510Z,7.83
2018-04-14T05:13:12.060Z,7.07
2018-04-14T05:15:39.611Z,7.57
2018-04-14T05:18:07.978Z,8.00
2018-04-14T05:20:36.314Z,7.33
2018-04-14T05:23:03.882Z,9.83
2018-04-14T05:25:31.529Z,7.10
2018-04-14T05:27:59.096Z,10.53
2018-04-14T05:30:26.942Z,6.80
2018-04-14T05:32:54.546Z,9.20
2018-04-14T05:35:22.161Z,7.97
2018-04-14T05:37:49.746Z,11.20
2018-04-14T05:40:17.313Z,9.27
2018-04-14T05:42:44.900Z,9.63
2018-04-14T05:45:13.276Z,8.67
2018-04-14T05:47:41.647Z,7.50
2018-04-14T05:50:09.980Z,12.37
2018-04-14T05:52:37.543Z,10.20
2018-04-14T05:55:05.127Z,9.37
2018-04-14T05:57:32.674Z,8.43
2018-04-14T06:00:00.291Z,8.10
2018-04-14T06:02:27.861Z,7.33
2018-04-14T06:04:55.419Z,8.97
2018-04-14T06:07:22.997Z,9.83
2018-04-14T06:09:50.599Z,7.20
2018-04-14T06:12:19.009Z,8.33
2018-04-14T06:14:46.579Z,6.47
2018-04-14T06:17:14.154Z,9.03
2018-04-14T06:19:41.702Z,9.03
2018-04-14T06:22:09.312Z,6.03
2018-04-14T06:24:36.924Z,5.90
2018-04-14T06:27:04.473Z,4.23
2018-04-14T06:29:32.038Z,6.27
2018-04-14T06:31:59.899Z,5.03
2018-04-14T06:34:27.490Z,6.40
2018-04-14T06:36:55.104Z,5.93
2018-04-14T06:39:22.651Z,7.47
2018-04-14T06:41:50.977Z,5.37
2018-04-14T06:44:18.548Z,8.53
2018-04-14T06:46:46.113Z,5.83
2018-04-14T06:49:13.689Z,5.90
2018-04-14T06:51:42.042Z,4.23
2018-04-14T06:54:09.638Z,2.93
2018-04-14T06:56:37.955Z,2.90
2018-04-14T06:59:06.170Z,4.83
2018-04-14T07:01:34.214Z,4.00
2018-04-14T07:04:01.763Z,4.57
2018-04-14T07:06:29.353Z,4.27
2018-04-14T07:08:56.940Z,3.27
2018-04-14T07:11:25.310Z,7.03
2018-04-14T07:13:53.671Z,3.87
2018-04-14T07:16:21.270Z,5.73
2018-04-14T07:18:48.831Z,3.90
2018-04-14T07:21:16.487Z,3.10
2018-04-14T07:23:44.957Z,4.37
2018-04-14T07:26:13.325Z,4.27
2018-04-14T07:28:41.649Z,2.63
2018-04-14T07:31:09.251Z,3.27
2018-04-14T07:33:37.608Z,4.60
2018-04-14T07:36:05.637Z,4.10
2018-04-14T07:38:33.216Z,3.87
2018-04-14T07:41:00.830Z,3.87
2018-04-14T07:43:28.907Z,3.10
2018-04-14T07:45:57.235Z,3.70
2018-04-14T07:48:24.886Z,4.87
2018-04-14T07:50:52.543Z,4.47
2018-04-14T07:53:20.104Z,4.03
2018-04-14T07:55:47.681Z,4.63
2018-04-14T07:58:15.307Z,5.43
2018-04-14T08:00:42.884Z,3.87
2018-04-14T08:03:11.130Z,3.17
2018-04-14T08:05:38.739Z,3.10
2018-04-14T08:08:06.449Z,3.20
2018-04-14T08:10:34.823Z,3.57
2018-04-14T08:13:03.352Z,5.33
2018-04-14T08:15:32.150Z,5.13
2018-04-14T08:17:59.730Z,4.80
2018-04-14T08:20:27.345Z,2.33
2018-04-14T08:22:55.004Z,3.77
2018-04-14T08:25:22.667Z,2.50
2018-04-14T08:27:50.239Z,3.03
2018-04-14T08:30:17.815Z,1.70
2018-04-14T08:32:45.497Z,3.77
2018-04-14T08:35:13.849Z,3.80
2018-04-14T08:37:41.433Z,4.57
2018-04-14T08:40:09.075Z,4.70
2018-04-14T08:42:36.829Z,5.23
2018-04-14T08:45:04.403Z,2.90
2018-04-14T08:47:31.943Z,2.50
2018-04-14T08:49:59.533Z,3.53
2018-04-14T08:52:27.248Z,1.80
2018-04-14T08:54:54.789Z,2.70
2018-04-14T08:57:22.364Z,2.53
2018-04-14T08:59:50.038Z,2.40
2018-04-14T09:02:17.600Z,4.00
2018-04-14T09:04:45.161Z,2.47
2018-04-14T09:07:12.743Z,1.83
2018-04-14T09:09:42.024Z,0.90
2018-04-14T09:12:09.599Z,3.97
2018-04-14T09:14:37.150Z,2.00
2018-04-14T09:17:04.891Z,1.77
2018-04-14T09:19:32.462Z,2.77
2018-04-14T09:22:00.303Z,1.03
2018-04-14T09:24:28.074Z,1.70
2018-04-14T09:26:55.621Z,0.70
2018-04-14T09:29:23.519Z,1.40
2018-04-14T09:31:51.073Z,0.97
2018-04-14T09:34:18.947Z,1.40
2018-04-14T09:36:46.714Z,1.57
2018-04-14T09:39:15.054Z,1.73
2018-04-14T09:41:42.620Z,1.73
2018-04-14T09:44:10.194Z,2.80
2018-04-14T09:46:37.754Z,1.97
2018-04-14T09:49:05.375Z,2.07
2018-04-14T09:51:33.700Z,3.87
2018-04-14T09:54:01.258Z,1.53
2018-04-14T09:56:28.905Z,1.47
2018-04-14T09:58:56.455Z,1.10
2018-04-14T10:01:27.930Z,1.13
2018-04-14T10:03:55.512Z,2.40
2018-04-14T10:06:23.062Z,2.23
2018-04-14T10:08:50.790Z,1.77
2018-04-14T10:11:18.346Z,2.00
2018-04-14T10:13:45.894Z,1.33
2018-04-14T10:16:13.496Z,2.07
2018-04-14T10:18:41.080Z,0.90
2018-04-14T10:21:09.420Z,4.10
2018-04-14T10:23:36.981Z,0.70
2018-04-14T10:26:04.545Z,2.30
2018-04-14T10:28:32.147Z,1.33
2018-04-14T10:31:00.515Z,1.30
2018-04-14T10:33:28.079Z,1.37
2018-04-14T10:35:56.485Z,1.50
2018-04-14T10:38:24.028Z,0.87
2018-04-14T10:40:52.371Z,1.37
2018-04-14T10:43:19.960Z,1.80
2018-04-14T10:45:48.310Z,2.13
2018-04-14T10:48:15.877Z,3.17
2018-04-14T10:50:44.237Z,2.63
2018-04-14T10:53:11.959Z,1.30
2018-04-14T10:55:39.568Z,2.30
2018-04-14T10:58:07.122Z,2.77
2018-04-14T11:00:35.875Z,2.70
2018-04-14T11:03:03.422Z,1.00
2018-04-14T11:05:30.979Z,1.23
2018-04-14T11:07:58.738Z,0.70
2018-04-14T11:10:26.294Z,3.23
2018-04-14T11:12:53.872Z,1.10
2018-04-14T11:15:21.434Z,0.70
2018-04-14T11:17:49.004Z,1.90
2018-04-14T11:20:16.756Z,1.33
2018-04-14T11:22:44.367Z,0.50
2018-04-14T11:25:12.715Z,0.50
2018-04-14T11:27:40.409Z,0.80
2018-04-14T11:30:08.736Z,2.43
2018-04-14T11:32:36.294Z,0.40
2018-04-14T11:35:03.892Z,0.40
2018-04-14T11:37:31.498Z,0.70
2018-04-14T11:39:59.066Z,0.77
2018-04-14T11:42:26.612Z,0.63
2018-04-14T11:44:54.199Z,0.30
2018-04-14T11:47:21.760Z,0.60
2018-04-14T11:49:49.687Z,0.30
2018-04-14T11:52:18.006Z,0.30
2018-04-14T11:54:45.703Z,0.30
2018-04-14T11:57:14.047Z,0.53
2018-04-14T11:59:42.427Z,0.37
2018-04-14T12:02:10.012Z,0.73
2018-04-14T12:04:37.571Z,0.47
2018-04-14T12:07:05.158Z,0.43
2018-04-14T12:09:33.541Z,0.60
2018-04-14T12:12:01.136Z,1.07
2018-04-14T12:14:28.713Z,1.10
2018-04-14T12:16:56.254Z,1.47
2018-04-14T12:19:24.002Z,1.57
2018-04-14T12:21:51.564Z,0.80
2018-04-14T12:24:19.213Z,0.57
2018-04-14T12:26:46.767Z,0.90
2018-04-14T12:29:15.215Z,1.40
2018-04-14T12:31:43.587Z,0.83
2018-04-14T12:34:11.140Z,1.90
2018-04-14T12:36:38.860Z,0.50
2018-04-14T12:39:06.443Z,0.80
2018-04-14T12:41:34.044Z,4.10
2018-04-14T12:44:02.428Z,1.73
2018-04-14T12:46:30.743Z,0.87
2018-04-14T12:48:58.858Z,1.00
2018-04-14T12:51:26.575Z,1.03
2018-04-14T12:53:54.243Z,0.67
2018-04-14T12:56:21.991Z,1.00
2018-04-14T12:58:49.603Z,1.50
2018-04-14T13:01:17.155Z,2.40
2018-04-14T13:03:44.749Z,1.50
2018-04-14T13:06:12.330Z,1.33
2018-04-14T13:08:39.928Z,2.17
2018-04-14T13:11:07.506Z,2.23
2018-04-14T13:13:35.930Z,1.00
2018-04-14T13:16:03.515Z,1.37
2018-04-14T13:18:31.093Z,1.13
2018-04-14T13:20:58.647Z,0.87
2018-04-14T13:23:26.419Z,2.10
2018-04-14T13:25:54.002Z,0.97
2018-04-14T13:28:22.356Z,1.40
2018-04-14T13:30:49.919Z,2.60
2018-04-14T13:33:17.695Z,1.50
2018-04-14T13:35:45.290Z,1.47
2018-04-14T13:38:12.951Z,0.70
2018-04-14T13:40:40.504Z,2.07
2018-04-14T13:43:08.064Z,1.33
2018-04-14T13:45:35.653Z,2.27
2018-04-14T13:48:03.210Z,2.43
2018-04-14T13:50:31.103Z,0.80
2018-04-14T13:52:58.670Z,2.60
2018-04-14T13:55:26.998Z,1.07
2018-04-14T13:57:54.586Z,1.17
2018-04-14T14:00:22.365Z,1.10
2018-04-14T14:02:51.121Z,2.17
2018-04-14T14:05:18.712Z,4.90
2018-04-14T14:07:46.544Z,2.27
2018-04-14T14:10:14.092Z,1.93
2018-04-14T14:12:41.666Z,1.83
2018-04-14T14:15:09.275Z,3.70
2018-04-14T14:17:36.839Z,0.90
2018-04-14T14:20:04.427Z,1.80
2018-04-14T14:22:32.021Z,0.80
2018-04-14T14:24:59.605Z,1.50
2018-04-14T14:27:27.509Z,1.13
2018-04-14T14:29:55.248Z,1.60
2018-04-14T14:32:22.793Z,1.93
2018-04-14T14:34:52.131Z,2.73
2018-04-14T14:37:19.742Z,2.80
2018-04-14T14:39:47.322Z,1.07
2018-04-14T14:42:15.802Z,2.33
2018-04-14T14:44:44.148Z,2.30
2018-04-14T14:47:11.723Z,2.07
2018-04-14T14:49:40.073Z,1.30
2018-04-14T14:52:07.663Z,1.40
2018-04-14T14:54:36.021Z,5.80
2018-04-14T14:57:03.587Z,3.40
2018-04-14T14:59:31.195Z,1.53
2018-04-14T15:01:58.759Z,1.60
2018-04-14T15:04:26.334Z,0.83
2018-04-14T15:06:53.948Z,1.30
2018-04-14T15:09:22.273Z,1.93
2018-04-14T15:11:49.875Z,0.90
2018-04-14T15:14:18.314Z,1.93
2018-04-14T15:16:45.866Z,1.20
2018-04-14T15:19:13.450Z,2.20
2018-04-14T15:21:41.094Z,3.60
2018-04-14T15:24:08.758Z,1.27
2018-04-14T15:26:36.335Z,0.90
2018-04-14T15:29:03.894Z,1.43
2018-04-14T15:31:31.493Z,1.70
2018-04-14T15:33:59.083Z,2.87
2018-04-14T15:36:26.633Z,1.10
2018-04-14T15:38:54.204Z,1.63
2018-04-14T15:41:21.766Z,1.40
2018-04-14T15:43:49.398Z,1.37
2018-04-14T15:46:17.703Z,2.07
2018-04-14T15:48:45.247Z,2.10
2018-04-14T15:51:12.876Z,1.10
2018-04-14T15:53:41.186Z,1.90
2018-04-14T15:56:08.741Z,0.73
2018-04-14T15:58:36.375Z,2.13
2018-04-14T16:01:03.921Z,3.07
2018-04-14T16:03:32.251Z,1.87
2018-04-14T16:05:59.871Z,1.30
2018-04-14T16:08:27.463Z,1.37
2018-04-14T16:10:55.018Z,1.83
2018-04-14T16:13:22.812Z,1.80
2018-04-14T16:15:51.140Z,0.77
2018-04-14T16:18:18.728Z,1.60
2018-04-14T16:20:46.292Z,4.03
2018-04-14T16:23:13.885Z,3.47
2018-04-14T16:25:42.480Z,2.53
2018-04-14T16:28:10.843Z,2.30
2018-04-14T16:30:39.931Z,2.37
2018-04-14T16:33:07.649Z,1.67
2018-04-14T16:35:35.243Z,3.03
2018-04-14T16:38:03.976Z,2.83
2018-04-14T16:40:31.693Z,2.70
2018-04-14T16:42:59.428Z,1.40
2018-04-14T16:45:26.988Z,1.50
2018-04-14T16:47:54.861Z,2.63
2018-04-14T16:50:22.408Z,3.60
2018-04-14T16:52:50.065Z,1.50
2018-04-14T16:55:17.621Z,2.33
2018-04-14T16:57:45.206Z,1.30
2018-04-14T17:00:12.750Z,2.93
2018-04-14T17:02:40.338Z,5.50
2018-04-14T17:05:08.659Z,3.20
2018-04-14T17:07:36.227Z,3.40
2018-04-14T17:10:03.828Z,3.50
2018-04-14T17:12:31.379Z,4.17
2018-04-14T17:17:58.859Z,6.47
2018-04-14T17:20:26.589Z,6.30
2018-04-14T17:22:54.137Z,6.83
2018-04-14T17:25:21.792Z,6.13
2018-04-14T17:27:49.335Z,5.87
2018-04-14T17:30:16.899Z,5.13
2018-04-14T17:32:45.356Z,6.63
2018-04-14T17:35:12.976Z,13.27
2018-04-14T17:37:40.690Z,8.87
2018-04-14T17:40:08.249Z,8.90
2018-04-14T17:42:35.817Z,15.83
2018-04-14T17:45:03.540Z,9.90
2018-04-14T17:47:32.005Z,13.43
2018-04-14T17:49:59.659Z,12.80
2018-04-14T17:52:27.260Z,8.90
2018-04-14T17:54:54.836Z,9.93
2018-04-14T17:57:22.429Z,12.43
2018-04-14T17:59:50.012Z,7.10
2018-04-14T18:02:18.534Z,5.63
2018-04-14T18:04:46.075Z,6.30
2018-04-14T18:07:13.806Z,4.80
2018-04-14T18:09:42.168Z,6.03
2018-04-14T18:12:09.712Z,5.53
2018-04-14T18:14:37.312Z,8.63
2018-04-14T18:17:05.632Z,10.77
2018-04-14T18:19:33.252Z,11.93
2018-04-14T18:22:01.605Z,11.00
2018-04-14T18:24:29.172Z,15.57
2018-04-14T18:26:57.153Z,15.03
2018-04-14T18:29:25.565Z,13.50
2018-04-14T18:31:53.185Z,13.20
2018-04-14T18:34:21.533Z,14.87
2018-04-14T18:36:49.169Z,14.07
2018-04-14T18:39:16.781Z,11.40
2018-04-14T18:41:45.933Z,12.80
2018-04-14T18:44:13.504Z,14.37
2018-04-14T18:46:41.097Z,15.00
2018-04-14T18:49:08.661Z,13.87
2018-04-14T18:51:37.037Z,13.93
2018-04-14T18:54:05.366Z,12.47
2018-04-14T18:56:32.944Z,15.90
2018-04-14T18:59:00.586Z,11.83
2018-04-14T19:01:28.219Z,13.30
2018-04-14T19:03:55.844Z,10.97
2018-04-14T19:06:23.400Z,11.43
2018-04-14T19:08:51.134Z,12.53
2018-04-14T19:11:18.757Z,13.63
2018-04-14T19:13:46.445Z,13.53
2018-04-14T19:16:14.005Z,10.90
2018-04-14T19:18:41.591Z,10.53
2018-04-14T19:21:09.306Z,12.23
2018-04-14T19:23:36.951Z,10.97
2018-04-14T19:26:05.467Z,14.17
2018-04-14T19:28:33.024Z,11.17
2018-04-14T19:31:00.622Z,11.50
2018-04-14T19:33:28.192Z,12.00
2018-04-14T19:35:55.755Z,12.57
2018-04-14T19:38:23.364Z,10.47
2018-04-14T19:40:50.930Z,8.37
2018-04-14T19:43:18.522Z,11.10
2018-04-14T19:45:46.130Z,11.87
2018-04-14T19:48:13.874Z,11.13
2018-04-14T19:50:42.223Z,9.63
2018-04-14T19:53:09.949Z,10.70
2018-04-14T19:55:38.972Z,9.97
2018-04-14T19:58:06.567Z,10.00
2018-04-14T20:00:35.352Z,9.30
2018-04-14T20:03:03.727Z,11.87
2018-04-14T20:05:32.470Z,10.63
2018-04-14T20:08:00.045Z,10.13
2018-04-14T20:10:29.030Z,9.80
2018-04-14T20:12:56.593Z,8.07
2018-04-14T20:15:24.145Z,6.83
2018-04-14T20:17:52.559Z,12.43
2018-04-14T20:20:20.919Z,9.93
2018-04-14T20:22:48.511Z,9.90
2018-04-14T20:25:16.842Z,9.70
2018-04-14T20:27:44.422Z,8.97
2018-04-14T20:30:12.045Z,8.77
2018-04-14T20:32:39.615Z,8.50
2018-04-14T20:35:07.171Z,9.63
2018-04-14T20:37:34.812Z,7.47
2018-04-14T20:40:02.410Z,8.60
2018-04-14T20:42:30.825Z,9.07
2018-04-14T20:44:58.449Z,8.47
2018-04-14T20:47:26.444Z,8.03
2018-04-14T20:49:54.782Z,7.63
2018-04-14T20:52:23.146Z,7.47
2018-04-14T20:54:50.715Z,8.90
2018-04-14T20:57:18.315Z,8.87
2018-04-14T20:59:47.652Z,6.27
2018-04-14T21:02:15.419Z,9.97
2018-04-14T21:04:43.915Z,6.90
2018-04-14T21:07:11.571Z,9.07
2018-04-14T21:09:39.120Z,8.00
2018-04-14T21:12:06.694Z,6.13
2018-04-14T21:14:34.325Z,6.43
2018-04-14T21:17:01.895Z,6.53
2018-04-14T21:19:29.851Z,6.03
2018-04-14T21:21:57.637Z,6.93
2018-04-14T21:24:25.204Z,5.97
2018-04-14T21:26:52.769Z,6.90
2018-04-14T21:29:20.375Z,5.50
2018-04-14T21:31:48.712Z,5.80
2018-04-14T21:34:16.300Z,7.80
2018-04-14T21:36:44.653Z,8.27
2018-04-14T21:39:12.271Z,6.77
2018-04-14T21:41:39.909Z,6.20
2018-04-14T21:44:08.260Z,6.47
2018-04-14T21:46:35.837Z,4.40
2018-04-14T21:49:04.192Z,5.83
2018-04-14T21:51:32.658Z,6.00
2018-04-14T21:54:00.284Z,4.70
2018-04-14T21:56:27.915Z,6.67
2018-04-14T21:58:56.294Z,5.27
2018-04-14T22:01:24.617Z,5.47
2018-04-14T22:03:52.596Z,5.87
2018-04-14T22:06:20.158Z,7.57
2018-04-14T22:08:47.888Z,8.80
2018-04-14T22:11:16.223Z,7.03
2018-04-14T22:13:43.863Z,6.80
2018-04-14T22:16:11.504Z,7.37
2018-04-14T22:18:39.237Z,7.27
2018-04-14T22:21:07.669Z,8.10
2018-04-14T22:23:35.253Z,10.40
2018-04-14T22:26:03.713Z,9.73
2018-04-14T22:28:31.321Z,8.50
2018-04-14T22:30:59.939Z,11.07
2018-04-14T22:33:27.534Z,10.87
2018-04-14T22:35:55.105Z,9.30
2018-04-14T22:38:23.480Z,8.63
2018-04-14T22:40:51.814Z,7.77
2018-04-14T22:43:19.378Z,12.87
2018-04-14T22:45:47.017Z,8.87
2018-04-14T22:48:14.583Z,7.17
2018-04-14T22:50:42.179Z,9.43
2018-04-14T22:53:09.770Z,8.00
2018-04-14T22:55:38.161Z,7.70
2018-04-14T22:58:05.730Z,8.07
2018-04-14T23:00:33.304Z,9.13
2018-04-14T23:03:02.428Z,9.33
2018-04-14T23:05:30.784Z,7.10
2018-04-14T23:07:58.346Z,9.03
2018-04-14T23:10:25.937Z,9.07
2018-04-14T23:12:54.340Z,11.33
2018-04-14T23:15:22.701Z,8.33
2018-04-14T23:17:51.043Z,8.40
2018-04-14T23:20:18.681Z,8.30
2018-04-14T23:22:46.245Z,10.63
2018-04-14T23:25:13.804Z,9.30
2018-04-14T23:27:41.391Z,7.53
2018-04-14T23:30:08.992Z,8.33
2018-04-14T23:32:37.325Z,7.87
2018-04-14T23:35:04.923Z,7.77
2018-04-14T23:37:33.253Z,7.53
2018-04-14T23:40:00.818Z,7.33
2018-04-14T23:42:28.424Z,7.97
2018-04-14T23:44:56.767Z,6.67
2018-04-14T23:47:24.342Z,7.80
2018-04-14T23:49:52.703Z,9.23
2018-04-14T23:52:20.281Z,7.17
2018-04-14T23:54:48.671Z,9.17
2018-04-14T23:57:17.019Z,7.33
2018-04-14T23:59:44.589Z,6.73
